createdAt,value
2017-10-07T00:00:07.315Z,10.6
2017-10-07T00:00:37.713Z,10.6
2017-10-07T00:01:35.162Z,10.6
2017-10-07T00:02:34.528Z,10.6
2017-10-07T00:03:33.988Z,10.6
2017-10-07T00:04:32.825Z,10.6
2017-10-07T00:05:32.161Z,10.6
2017-10-07T00:06:30.998Z,10.6
2017-10-07T00:07:30.341Z,10.6
2017-10-07T00:08:29.425Z,10.6
2017-10-07T00:09:28.381Z,10.6
2017-10-07T00:10:27.725Z,10.6
2017-10-07T00:11:26.709Z,10.6
2017-10-07T00:12:26.177Z,10.6
2017-10-07T00:13:25.135Z,10.6
2017-10-07T00:14:24.471Z,10.6
2017-10-07T00:15:23.678Z,10.6
2017-10-07T00:16:22.508Z,10.6
2017-10-07T00:17:21.986Z,10.6
2017-10-07T00:18:21.077Z,10.6
2017-10-07T00:19:19.803Z,10.6
2017-10-07T00:20:19.158Z,10.6
2017-10-07T00:21:18.630Z,10.6
2017-10-07T00:22:17.589Z,10.6
2017-10-07T00:23:16.678Z,10.6
2017-10-07T00:24:16.014Z,10.6
2017-10-07T00:25:15.243Z,10.6
2017-10-07T00:26:14.072Z,10.6
2017-10-07T00:27:13.280Z,10.6
2017-10-07T00:28:12.492Z,10.6
2017-10-07T00:29:11.713Z,10.6
2017-10-07T00:29:42.111Z,10.6
2017-10-07T00:30:12.754Z,10.7
2017-10-07T00:30:43.419Z,10.7
2017-10-07T00:32:09.180Z,10.7
2017-10-07T00:33:08.266Z,10.7
2017-10-07T00:34:07.607Z,10.7
2017-10-07T00:35:06.442Z,10.7
2017-10-07T00:36:05.788Z,10.7
2017-10-07T00:37:04.994Z,10.7
2017-10-07T00:38:03.952Z,10.7
2017-10-07T00:39:03.418Z,10.7
2017-10-07T00:40:02.256Z,10.7
2017-10-07T00:40:32.780Z,10.7
2017-10-07T00:41:03.057Z,10.7
2017-10-07T00:41:33.710Z,10.7
2017-10-07T00:42:04.111Z,10.7
2017-10-07T00:42:34.772Z,10.7
2017-10-07T00:43:05.177Z,10.7
2017-10-07T00:43:35.334Z,10.7
2017-10-07T00:44:05.609Z,10.7
2017-10-07T00:44:58.030Z,10.7
2017-10-07T00:45:57.233Z,10.7
2017-10-07T00:46:56.444Z,10.7
2017-10-07T00:47:55.404Z,10.6
2017-10-07T00:48:54.743Z,10.6
2017-10-07T00:49:54.227Z,10.6
2017-10-07T00:50:53.182Z,10.6
2017-10-07T00:51:52.389Z,10.6
2017-10-07T00:52:51.361Z,10.6
2017-10-07T00:53:50.452Z,10.6
2017-10-07T00:54:49.908Z,10.6
2017-10-07T00:55:48.997Z,10.5
2017-10-07T00:56:47.834Z,10.5
2017-10-07T00:57:46.803Z,10.5
2017-10-07T00:58:46.383Z,10.5
2017-10-07T00:59:45.607Z,10.5
2017-10-07T01:00:44.817Z,10.5
2017-10-07T01:01:43.779Z,10.5
2017-10-07T01:02:43.250Z,10.5
2017-10-07T01:03:42.085Z,10.5
2017-10-07T01:04:41.171Z,10.5
2017-10-07T01:05:40.003Z,10.4
2017-10-07T01:06:39.713Z,10.5
2017-10-07T01:07:38.670Z,10.4
2017-10-07T01:08:37.882Z,10.4
2017-10-07T01:09:36.718Z,10.4
2017-10-07T01:10:36.080Z,10.4
2017-10-07T01:11:35.433Z,10.4
2017-10-07T01:12:34.642Z,10.4
2017-10-07T01:13:04.919Z,10.4
2017-10-07T01:13:35.560Z,10.4
2017-10-07T01:14:32.763Z,10.4
2017-10-07T01:15:32.099Z,10.4
2017-10-07T01:16:30.807Z,10.4
2017-10-07T01:17:30.136Z,10.4
2017-10-07T01:18:28.971Z,10.4
2017-10-07T01:19:28.180Z,10.4
2017-10-07T01:20:27.394Z,10.4
2017-10-07T01:21:26.981Z,10.4
2017-10-07T01:23:24.956Z,10.4
2017-10-07T01:23:55.359Z,10.4
2017-10-07T01:25:23.502Z,10.4
2017-10-07T01:28:20.852Z,10.4
2017-10-07T01:29:20.180Z,10.4
2017-10-07T01:30:19.388Z,10.4
2017-10-07T01:31:18.226Z,10.4
2017-10-07T01:32:17.566Z,10.4
2017-10-07T01:33:16.650Z,10.4
2017-10-07T01:33:46.794Z,10.4
2017-10-07T01:35:14.824Z,10.4
2017-10-07T01:36:14.403Z,10.4
2017-10-07T01:37:12.990Z,10.4
2017-10-07T01:38:12.448Z,10.5
2017-10-07T01:39:11.531Z,10.5
2017-10-07T01:40:10.483Z,10.5
2017-10-07T01:41:09.697Z,10.4
2017-10-07T01:42:09.026Z,10.4
2017-10-07T01:43:08.235Z,10.4
2017-10-07T01:45:06.321Z,10.4
2017-10-07T01:46:05.669Z,10.4
2017-10-07T01:47:04.883Z,10.4
2017-10-07T01:48:04.101Z,10.4
2017-10-07T01:49:02.811Z,10.4
2017-10-07T01:50:02.153Z,10.4
2017-10-07T01:51:01.249Z,10.4
2017-10-07T01:52:00.457Z,10.4
2017-10-07T01:52:59.674Z,10.4
2017-10-07T01:53:58.885Z,10.4
2017-10-07T01:54:58.223Z,10.4
2017-10-07T01:55:57.060Z,10.4
2017-10-07T01:56:56.396Z,10.4
2017-10-07T01:57:55.359Z,10.4
2017-10-07T01:58:54.695Z,10.4
2017-10-07T01:59:54.045Z,10.4
2017-10-07T02:00:52.751Z,10.4
2017-10-07T02:01:23.541Z,10.4
2017-10-07T02:01:54.186Z,10.4
2017-10-07T02:02:51.511Z,10.4
2017-10-07T02:03:50.354Z,10.4
2017-10-07T02:04:49.566Z,10.4
2017-10-07T02:05:48.524Z,10.4
2017-10-07T02:06:47.857Z,10.4
2017-10-07T02:07:47.073Z,10.4
2017-10-07T02:09:44.915Z,10.4
2017-10-07T02:10:44.621Z,10.4
2017-10-07T02:11:43.182Z,10.4
2017-10-07T02:12:42.416Z,10.4
2017-10-07T02:13:41.736Z,10.4
2017-10-07T02:14:40.817Z,10.4
2017-10-07T02:15:40.392Z,10.4
2017-10-07T02:16:39.202Z,10.4
2017-10-07T02:17:38.655Z,10.4
2017-10-07T02:18:37.601Z,10.4
2017-10-07T02:19:36.796Z,10.4
2017-10-07T02:20:36.117Z,10.4
2017-10-07T02:21:35.429Z,10.4
2017-10-07T02:22:33.995Z,10.4
2017-10-07T02:23:33.188Z,10.4
2017-10-07T02:24:32.511Z,10.5
2017-10-07T02:26:30.971Z,10.5
2017-10-07T02:28:28.919Z,10.5
2017-10-07T02:30:27.497Z,10.5
2017-10-07T02:31:26.693Z,10.5
2017-10-07T02:32:25.388Z,10.5
2017-10-07T02:33:24.843Z,10.5
2017-10-07T02:34:23.922Z,10.5
2017-10-07T02:35:22.998Z,10.5
2017-10-07T02:36:22.697Z,10.6
2017-10-07T02:37:21.395Z,10.6
2017-10-07T02:38:20.853Z,10.6
2017-10-07T02:39:19.673Z,10.6
2017-10-07T02:40:18.993Z,10.6
2017-10-07T02:41:18.191Z,10.6
2017-10-07T02:43:16.405Z,10.6
2017-10-07T02:44:15.729Z,10.6
2017-10-07T02:45:14.796Z,10.6
2017-10-07T02:46:13.916Z,10.6
2017-10-07T02:47:13.110Z,10.6
2017-10-07T02:48:12.052Z,10.6
2017-10-07T02:49:11.510Z,10.6
2017-10-07T02:50:10.463Z,10.6
2017-10-07T02:51:09.532Z,10.6
2017-10-07T02:52:08.861Z,10.6
2017-10-07T02:53:08.064Z,10.6
2017-10-07T02:54:07.252Z,10.6
2017-10-07T02:55:06.202Z,10.6
2017-10-07T02:56:05.654Z,10.6
2017-10-07T02:57:04.473Z,10.7
2017-10-07T02:58:03.542Z,10.7
2017-10-07T02:59:02.612Z,10.7
2017-10-07T03:00:02.185Z,10.7
2017-10-07T03:01:01.001Z,10.7
2017-10-07T03:02:00.441Z,10.6
2017-10-07T03:02:59.133Z,10.7
2017-10-07T03:03:58.700Z,10.7
2017-10-07T03:04:57.641Z,10.7
2017-10-07T03:05:57.335Z,10.7
2017-10-07T03:06:56.028Z,10.7
2017-10-07T03:07:55.222Z,10.7
2017-10-07T03:08:54.419Z,10.7
2017-10-07T03:09:53.357Z,10.7
2017-10-07T03:10:52.553Z,10.8
2017-10-07T03:12:51.129Z,10.7
2017-10-07T03:13:50.446Z,10.7
2017-10-07T03:14:49.259Z,10.7
2017-10-07T03:15:48.325Z,10.7
2017-10-07T03:16:47.515Z,10.7
2017-10-07T03:17:46.840Z,10.7
2017-10-07T03:18:46.285Z,10.7
2017-10-07T03:19:44.974Z,10.7
2017-10-07T03:20:44.170Z,10.7
2017-10-07T03:21:43.375Z,10.7
2017-10-07T03:22:42.440Z,10.7
2017-10-07T03:23:41.887Z,10.7
2017-10-07T03:24:41.089Z,10.7
2017-10-07T03:25:40.159Z,10.7
2017-10-07T03:26:39.480Z,10.7
2017-10-07T03:27:38.297Z,10.7
2017-10-07T03:28:37.358Z,10.7
2017-10-07T03:29:36.682Z,10.7
2017-10-07T03:30:35.657Z,10.7
2017-10-07T03:31:34.983Z,10.7
2017-10-07T03:32:34.303Z,10.7
2017-10-07T03:34:32.381Z,10.7
2017-10-07T03:36:30.837Z,10.7
2017-10-07T03:37:29.914Z,10.7
2017-10-07T03:38:29.232Z,10.7
2017-10-07T03:38:59.613Z,10.7
2017-10-07T03:39:30.392Z,10.7
2017-10-07T03:40:27.322Z,10.7
2017-10-07T03:41:26.901Z,10.7
2017-10-07T03:42:25.846Z,10.7
2017-10-07T03:43:24.677Z,10.7
2017-10-07T03:44:23.877Z,10.7
2017-10-07T03:45:23.075Z,10.7
2017-10-07T03:46:22.517Z,10.7
2017-10-07T03:47:21.330Z,10.7
2017-10-07T03:48:20.526Z,10.7
2017-10-07T03:49:19.621Z,10.7
2017-10-07T03:50:19.077Z,10.7
2017-10-07T03:51:17.908Z,10.7
2017-10-07T03:52:16.988Z,10.7
2017-10-07T03:53:16.317Z,10.7
2017-10-07T03:54:15.522Z,10.7
2017-10-07T03:55:14.588Z,10.7
2017-10-07T03:56:13.912Z,10.7
2017-10-07T03:57:13.229Z,10.7
2017-10-07T03:58:12.053Z,10.7
2017-10-07T03:58:42.704Z,10.7
2017-10-07T03:59:13.082Z,10.7
2017-10-07T04:02:09.033Z,10.7
2017-10-07T04:03:08.226Z,10.7
2017-10-07T04:04:07.300Z,10.7
2017-10-07T04:05:06.492Z,10.7
2017-10-07T04:06:05.308Z,10.7
2017-10-07T04:07:04.756Z,10.7
2017-10-07T04:08:03.577Z,10.7
2017-10-07T04:09:02.777Z,10.7
2017-10-07T04:10:01.970Z,10.7
2017-10-07T04:12:00.303Z,10.7
2017-10-07T04:12:59.505Z,10.7
2017-10-07T04:13:58.947Z,10.7
2017-10-07T04:14:58.138Z,10.7
2017-10-07T04:15:56.960Z,10.8
2017-10-07T04:16:56.283Z,10.8
2017-10-07T04:17:55.352Z,10.7
2017-10-07T04:18:54.675Z,10.8
2017-10-07T04:19:53.491Z,10.8
2017-10-07T04:20:52.809Z,10.8
2017-10-07T04:21:52.129Z,10.8
2017-10-07T04:22:50.813Z,10.8
2017-10-07T04:23:50.518Z,10.8
2017-10-07T04:24:49.586Z,10.8
2017-10-07T04:25:48.538Z,10.8
2017-10-07T04:26:47.854Z,10.8
2017-10-07T04:27:47.175Z,10.8
2017-10-07T04:28:46.368Z,10.7
2017-10-07T04:29:44.933Z,10.8
2017-10-07T04:30:44.383Z,10.7
2017-10-07T04:31:43.450Z,10.7
2017-10-07T04:32:42.772Z,10.7
2017-10-07T04:33:13.416Z,10.7
2017-10-07T04:33:43.927Z,10.7
2017-10-07T04:34:40.861Z,10.7
2017-10-07T04:35:40.053Z,10.7
2017-10-07T04:36:39.369Z,10.7
2017-10-07T04:37:38.431Z,10.7
2017-10-07T04:38:37.998Z,10.7
2017-10-07T04:39:36.810Z,10.7
2017-10-07T04:40:07.064Z,10.7
2017-10-07T04:40:37.708Z,10.7
2017-10-07T04:41:35.268Z,10.7
2017-10-07T04:42:34.461Z,10.7
2017-10-07T04:43:33.402Z,10.7
2017-10-07T04:44:32.588Z,10.7
2017-10-07T04:45:31.528Z,10.7
2017-10-07T04:46:30.848Z,10.7
2017-10-07T04:47:30.043Z,10.7
2017-10-07T04:48:29.239Z,10.7
2017-10-07T04:49:28.191Z,10.7
2017-10-07T04:50:27.388Z,10.7
2017-10-07T04:50:58.022Z,10.7
2017-10-07T04:52:25.909Z,10.7
2017-10-07T04:53:24.739Z,10.7
2017-10-07T04:54:24.059Z,10.6
2017-10-07T04:55:23.254Z,10.7
2017-10-07T04:56:22.566Z,10.7
2017-10-07T04:57:21.642Z,10.6
2017-10-07T04:58:20.842Z,10.6
2017-10-07T04:59:20.157Z,10.6
2017-10-07T05:00:18.976Z,10.6
2017-10-07T05:01:18.167Z,10.6
2017-10-07T05:02:17.360Z,10.6
2017-10-07T05:03:16.675Z,10.6
2017-10-07T05:04:15.879Z,10.6
2017-10-07T05:05:15.072Z,10.6
2017-10-07T05:06:14.265Z,10.6
2017-10-07T05:07:13.097Z,10.6
2017-10-07T05:08:12.302Z,10.6
2017-10-07T05:09:11.623Z,10.6
2017-10-07T05:10:10.941Z,10.6
2017-10-07T05:11:09.760Z,10.6
2017-10-07T05:12:08.947Z,10.6
2017-10-07T05:13:08.162Z,10.7
2017-10-07T05:14:07.492Z,10.6
2017-10-07T05:15:06.556Z,10.6
2017-10-07T05:16:05.878Z,10.6
2017-10-07T05:17:04.700Z,10.6
2017-10-07T05:18:04.142Z,10.6
2017-10-07T05:19:03.342Z,10.6
2017-10-07T05:20:01.910Z,10.7
2017-10-07T05:21:01.227Z,10.6
2017-10-07T05:22:00.297Z,10.6
2017-10-07T05:23:59.001Z,10.6
2017-10-07T05:24:57.944Z,10.6
2017-10-07T05:25:57.267Z,10.6
2017-10-07T05:26:56.214Z,10.6
2017-10-07T05:27:55.411Z,10.6
2017-10-07T05:28:54.731Z,10.6
2017-10-07T05:29:54.060Z,10.6
2017-10-07T05:30:53.007Z,10.6
2017-10-07T05:31:51.955Z,10.6
2017-10-07T05:32:51.530Z,10.6
2017-10-07T05:33:22.036Z,10.6
2017-10-07T05:33:52.290Z,10.6
2017-10-07T05:34:49.475Z,10.6
2017-10-07T05:35:48.787Z,10.6
2017-10-07T05:36:47.986Z,10.6
2017-10-07T05:37:46.930Z,10.6
2017-10-07T05:38:45.869Z,10.6
2017-10-07T05:39:45.188Z,10.5
2017-10-07T05:40:44.645Z,10.5
2017-10-07T05:41:43.715Z,10.5
2017-10-07T05:43:41.790Z,10.6
2017-10-07T05:44:41.108Z,10.6
2017-10-07T05:45:40.564Z,10.6
2017-10-07T05:46:39.508Z,10.6
2017-10-07T05:47:38.444Z,10.6
2017-10-07T05:48:37.893Z,10.6
2017-10-07T05:49:36.578Z,10.6
2017-10-07T05:50:35.894Z,10.6
2017-10-07T05:51:35.083Z,10.6
2017-10-07T05:52:34.411Z,10.6
2017-10-07T05:53:33.478Z,10.5
2017-10-07T05:54:32.801Z,10.6
2017-10-07T05:55:31.620Z,10.6
2017-10-07T05:56:30.820Z,10.5
2017-10-07T05:57:30.392Z,10.5
2017-10-07T05:58:29.211Z,10.5
2017-10-07T05:59:28.780Z,10.5
2017-10-07T06:00:27.344Z,10.5
2017-10-07T06:01:26.534Z,10.6
2017-10-07T06:02:25.849Z,10.6
2017-10-07T06:03:25.296Z,10.6
2017-10-07T06:04:24.232Z,10.6
2017-10-07T06:05:23.051Z,10.6
2017-10-07T06:06:22.374Z,10.6
2017-10-07T06:07:21.693Z,10.6
2017-10-07T06:08:20.554Z,10.6
2017-10-07T06:08:51.192Z,10.6
2017-10-07T06:09:21.581Z,10.6
2017-10-07T06:09:52.219Z,10.6
2017-10-07T06:10:22.855Z,10.5
2017-10-07T06:11:18.160Z,10.5
2017-10-07T06:12:17.531Z,10.5
2017-10-07T06:13:16.736Z,10.5
2017-10-07T06:14:15.453Z,10.5
2017-10-07T06:15:14.895Z,10.5
2017-10-07T06:16:14.220Z,10.5
2017-10-07T06:17:13.420Z,10.6
2017-10-07T06:18:12.359Z,10.5
2017-10-07T06:19:11.438Z,10.6
2017-10-07T06:20:10.767Z,10.6
2017-10-07T06:21:09.836Z,10.6
2017-10-07T06:22:09.030Z,10.6
2017-10-07T06:23:08.099Z,10.6
2017-10-07T06:24:07.545Z,10.6
2017-10-07T06:25:06.364Z,10.6
2017-10-07T06:26:05.553Z,10.6
2017-10-07T06:28:03.920Z,10.6
2017-10-07T06:29:03.109Z,10.6
2017-10-07T06:30:02.308Z,10.6
2017-10-07T06:31:01.625Z,10.7
2017-10-07T06:32:00.446Z,10.7
2017-10-07T06:32:59.645Z,10.7
2017-10-07T06:33:58.844Z,10.7
2017-10-07T06:34:57.784Z,10.7
2017-10-07T06:35:56.981Z,10.7
2017-10-07T06:36:56.299Z,10.7
2017-10-07T06:37:55.618Z,10.7
2017-10-07T06:38:54.566Z,10.8
2017-10-07T06:39:53.763Z,10.8
2017-10-07T06:40:52.960Z,10.8
2017-10-07T06:41:52.153Z,10.8
2017-10-07T06:42:51.354Z,10.8
2017-10-07T06:43:50.680Z,10.8
2017-10-07T06:44:49.616Z,10.8
2017-10-07T06:45:48.567Z,10.8
2017-10-07T06:46:47.631Z,10.8
2017-10-07T06:47:46.710Z,10.8
2017-10-07T06:48:46.279Z,10.8
2017-10-07T06:49:45.213Z,10.8
2017-10-07T06:50:44.538Z,10.8
2017-10-07T06:51:43.736Z,10.8
2017-10-07T06:52:42.932Z,10.8
2017-10-07T06:53:41.998Z,10.8
2017-10-07T06:54:41.319Z,10.8
2017-10-07T06:55:40.002Z,10.8
2017-10-07T06:56:39.575Z,10.8
2017-10-07T06:57:38.515Z,10.7
2017-10-07T06:58:37.711Z,10.7
2017-10-07T06:59:36.776Z,10.7
2017-10-07T07:00:36.100Z,10.7
2017-10-07T07:01:35.298Z,10.7
2017-10-07T07:02:34.495Z,10.7
2017-10-07T07:03:33.564Z,10.7
2017-10-07T07:04:32.507Z,10.7
2017-10-07T07:05:31.946Z,10.7
2017-10-07T07:06:31.006Z,10.7
2017-10-07T07:07:30.071Z,10.6
2017-10-07T07:08:29.388Z,10.6
2017-10-07T07:09:28.324Z,10.6
2017-10-07T07:10:27.394Z,10.6
2017-10-07T07:11:26.723Z,10.6
2017-10-07T07:12:25.658Z,10.7
2017-10-07T07:13:25.145Z,10.7
2017-10-07T07:14:24.083Z,10.7
2017-10-07T07:16:22.669Z,10.7
2017-10-07T07:17:21.859Z,10.7
2017-10-07T07:18:21.053Z,10.7
2017-10-07T07:19:19.993Z,10.8
2017-10-07T07:20:19.183Z,10.8
2017-10-07T07:21:18.501Z,10.8
2017-10-07T07:22:17.317Z,10.8
2017-10-07T07:23:16.640Z,10.8
2017-10-07T07:24:15.841Z,10.8
2017-10-07T07:25:15.028Z,10.8
2017-10-07T07:26:14.124Z,10.7
2017-10-07T07:27:13.564Z,10.7
2017-10-07T07:28:12.256Z,10.7
2017-10-07T07:29:11.825Z,10.7
2017-10-07T07:30:10.769Z,10.7
2017-10-07T07:31:09.836Z,10.7
2017-10-07T07:32:08.901Z,10.6
2017-10-07T07:33:08.221Z,10.6
2017-10-07T07:34:07.539Z,10.6
2017-10-07T07:35:06.481Z,10.6
2017-10-07T07:36:05.805Z,10.6
2017-10-07T07:37:05.011Z,10.6
2017-10-07T07:38:04.205Z,10.6
2017-10-07T07:39:03.404Z,10.6
2017-10-07T07:40:02.598Z,10.6
2017-10-07T07:41:01.424Z,10.6
2017-10-07T07:42:00.622Z,10.6
2017-10-07T07:43:00.064Z,10.7
2017-10-07T07:43:59.009Z,10.7
2017-10-07T07:44:58.209Z,10.7
2017-10-07T07:45:57.530Z,10.7
2017-10-07T07:46:56.726Z,10.8
2017-10-07T07:47:55.422Z,10.8
2017-10-07T07:48:54.613Z,10.8
2017-10-07T07:49:54.177Z,10.8
2017-10-07T07:50:52.868Z,10.9
2017-10-07T07:51:52.063Z,10.9
2017-10-07T07:53:50.616Z,10.9
2017-10-07T07:54:49.686Z,10.9
2017-10-07T07:55:49.003Z,11
2017-10-07T07:56:48.325Z,11
2017-10-07T07:57:47.144Z,11
2017-10-07T07:58:46.338Z,11
2017-10-07T07:59:45.795Z,11
2017-10-07T08:00:44.490Z,11.1
2017-10-07T08:01:43.803Z,11.1
2017-10-07T08:02:43.127Z,11.1
2017-10-07T08:03:41.956Z,11.2
2017-10-07T08:04:41.657Z,11.2
2017-10-07T08:05:40.728Z,11.3
2017-10-07T08:06:39.548Z,11.3
2017-10-07T08:07:38.869Z,11.3
2017-10-07T08:08:38.065Z,11.3
2017-10-07T08:09:37.400Z,11.4
2017-10-07T08:10:36.338Z,11.4
2017-10-07T08:11:35.273Z,11.4
2017-10-07T08:12:34.476Z,11.5
2017-10-07T08:13:33.671Z,11.5
2017-10-07T08:14:32.989Z,11.5
2017-10-07T08:15:31.945Z,11.5
2017-10-07T08:16:31.262Z,11.5
2017-10-07T08:17:30.713Z,11.6
2017-10-07T08:18:29.408Z,11.6
2017-10-07T08:19:28.852Z,11.6
2017-10-07T08:20:27.786Z,11.6
2017-10-07T08:21:27.106Z,11.6
2017-10-07T08:22:26.432Z,11.6
2017-10-07T08:23:25.251Z,11.6
2017-10-07T08:24:24.446Z,11.6
2017-10-07T08:25:23.517Z,11.6
2017-10-07T08:26:23.090Z,11.6
2017-10-07T08:27:22.152Z,11.6
2017-10-07T08:28:21.216Z,11.7
2017-10-07T08:29:20.666Z,11.6
2017-10-07T08:30:19.618Z,11.6
2017-10-07T08:31:18.688Z,11.6
2017-10-07T08:31:49.073Z,11.6
2017-10-07T08:32:19.322Z,11.6
2017-10-07T08:33:17.005Z,11.6
2017-10-07T08:34:16.072Z,11.6
2017-10-07T08:35:15.646Z,11.6
2017-10-07T08:36:14.960Z,11.7
2017-10-07T08:37:13.904Z,11.7
2017-10-07T08:38:13.096Z,11.7
2017-10-07T08:39:12.037Z,11.7
2017-10-07T08:40:11.358Z,11.7
2017-10-07T08:41:10.419Z,11.7
2017-10-07T08:42:09.485Z,11.6
2017-10-07T08:43:08.681Z,11.6
2017-10-07T08:44:07.995Z,11.6
2017-10-07T08:45:07.318Z,11.6
2017-10-07T08:46:06.267Z,11.6
2017-10-07T08:47:05.590Z,11.7
2017-10-07T08:48:04.400Z,11.6
2017-10-07T08:49:03.852Z,11.6
2017-10-07T08:50:03.050Z,11.5
2017-10-07T08:51:02.123Z,11.5
2017-10-07T08:52:01.319Z,11.4
2017-10-07T08:53:00.511Z,11.5
2017-10-07T08:53:59.950Z,11.5
2017-10-07T08:54:58.647Z,11.5
2017-10-07T08:55:57.973Z,11.5
2017-10-07T08:56:57.296Z,11.5
2017-10-07T08:57:56.489Z,11.4
2017-10-07T08:58:55.682Z,11.3
2017-10-07T08:59:54.750Z,11.3
2017-10-07T09:00:53.818Z,11.3
2017-10-07T09:01:53.142Z,11.3
2017-10-07T09:02:52.462Z,11.3
2017-10-07T09:03:51.272Z,11.3
2017-10-07T09:04:50.592Z,11.3
2017-10-07T09:05:49.538Z,11.4
2017-10-07T09:06:48.863Z,11.4
2017-10-07T09:07:47.805Z,11.4
2017-10-07T09:08:47.252Z,11.5
2017-10-07T09:09:46.323Z,11.4
2017-10-07T09:10:45.766Z,11.5
2017-10-07T09:11:44.850Z,11.5
2017-10-07T09:12:44.174Z,11.6
2017-10-07T09:13:43.245Z,11.6
2017-10-07T09:14:42.322Z,11.6
2017-10-07T09:15:41.398Z,11.7
2017-10-07T09:16:40.593Z,11.7
2017-10-07T09:17:39.903Z,11.7
2017-10-07T09:18:38.846Z,11.6
2017-10-07T09:19:37.916Z,11.6
2017-10-07T09:20:37.365Z,11.7
2017-10-07T09:21:36.820Z,11.7
2017-10-07T09:22:35.387Z,11.7
2017-10-07T09:23:34.957Z,11.7
2017-10-07T09:24:34.142Z,11.8
2017-10-07T09:25:33.584Z,11.7
2017-10-07T09:26:32.147Z,11.8
2017-10-07T09:27:31.474Z,11.8
2017-10-07T09:28:30.675Z,11.8
2017-10-07T09:30:29.009Z,11.9
2017-10-07T09:31:28.449Z,11.8
2017-10-07T09:32:27.262Z,11.8
2017-10-07T09:33:26.331Z,11.7
2017-10-07T09:34:25.520Z,11.7
2017-10-07T09:35:25.098Z,11.7
2017-10-07T09:36:24.289Z,11.7
2017-10-07T09:36:54.562Z,11.7
2017-10-07T09:38:22.685Z,11.7
2017-10-07T09:39:21.622Z,11.7
2017-10-07T09:40:20.702Z,11.6
2017-10-07T09:41:20.070Z,11.6
2017-10-07T09:42:19.016Z,11.7
2017-10-07T09:43:18.334Z,11.7
2017-10-07T09:44:17.405Z,11.7
2017-10-07T09:45:16.986Z,11.7
2017-10-07T09:46:15.804Z,11.7
2017-10-07T09:47:15.257Z,11.8
2017-10-07T09:48:14.197Z,11.7
2017-10-07T09:49:13.271Z,11.8
2017-10-07T09:50:12.726Z,11.9
2017-10-07T09:51:11.916Z,11.8
2017-10-07T09:52:11.241Z,11.9
2017-10-07T09:53:10.190Z,12
2017-10-07T09:54:09.268Z,12
2017-10-07T09:55:08.466Z,12.1
2017-10-07T09:56:07.673Z,12.1
2017-10-07T09:57:06.996Z,12.1
2017-10-07T09:58:05.820Z,12.2
2017-10-07T09:59:05.139Z,12.2
2017-10-07T10:00:04.469Z,12.2
2017-10-07T10:01:03.797Z,12.3
2017-10-07T10:02:02.990Z,12.3
2017-10-07T10:03:02.320Z,12.3
2017-10-07T10:04:01.402Z,12.4
2017-10-07T10:05:00.478Z,12.4
2017-10-07T10:05:59.297Z,12.4
2017-10-07T10:06:58.750Z,12.4
2017-10-07T10:07:29.383Z,12.4
2017-10-07T10:07:59.894Z,12.4
2017-10-07T10:08:56.956Z,12.4
2017-10-07T10:09:56.157Z,12.3
2017-10-07T10:10:55.353Z,12.2
2017-10-07T10:11:54.423Z,12.2
2017-10-07T10:12:53.873Z,12.1
2017-10-07T10:13:53.200Z,12.1
2017-10-07T10:14:52.016Z,12.1
2017-10-07T10:15:51.579Z,12
2017-10-07T10:16:50.393Z,12
2017-10-07T10:17:20.901Z,12
2017-10-07T10:17:51.541Z,12
2017-10-07T10:18:21.928Z,12
2017-10-07T10:18:52.435Z,12
2017-10-07T10:19:22.832Z,12
2017-10-07T10:19:53.087Z,12
2017-10-07T10:20:23.477Z,12
2017-10-07T10:21:46.693Z,12
2017-10-07T10:22:45.765Z,12
2017-10-07T10:23:45.084Z,12
2017-10-07T10:24:44.026Z,12
2017-10-07T10:25:43.226Z,12
2017-10-07T10:26:42.325Z,12.1
2017-10-07T10:27:41.645Z,12.1
2017-10-07T10:28:40.895Z,12.1
2017-10-07T10:29:40.222Z,12.1
2017-10-07T10:30:10.724Z,12.1
2017-10-07T10:30:41.358Z,12.1
2017-10-07T10:31:11.997Z,12.1
2017-10-07T10:32:37.733Z,12.1
2017-10-07T10:33:36.555Z,12.1
2017-10-07T10:34:35.622Z,12.1
2017-10-07T10:35:35.193Z,12.1
2017-10-07T10:36:34.137Z,12.1
2017-10-07T10:37:33.451Z,12.2
2017-10-07T10:38:32.650Z,12.2
2017-10-07T10:39:31.971Z,12.2
2017-10-07T10:40:30.916Z,12.3
2017-10-07T10:42:29.491Z,12.3
2017-10-07T10:43:28.562Z,12.3
2017-10-07T10:44:27.639Z,12.4
2017-10-07T10:45:27.091Z,12.4
2017-10-07T10:46:26.288Z,12.4
2017-10-07T10:47:25.486Z,12.4
2017-10-07T10:48:24.562Z,12.3
2017-10-07T10:49:23.636Z,12.3
2017-10-07T10:50:22.724Z,12.4
2017-10-07T10:51:22.041Z,12.4
2017-10-07T10:52:21.359Z,12.4
2017-10-07T10:53:20.422Z,12.4
2017-10-07T10:54:19.493Z,12.4
2017-10-07T10:55:18.941Z,12.4
2017-10-07T10:56:17.757Z,12.4
2017-10-07T10:57:16.953Z,12.4
2017-10-07T10:58:16.391Z,12.5
2017-10-07T10:59:15.590Z,12.5
2017-10-07T10:59:46.240Z,12.5
2017-10-07T11:00:17.003Z,12.6
2017-10-07T11:00:47.389Z,12.6
2017-10-07T11:01:17.899Z,12.6
2017-10-07T11:01:48.557Z,12.6
2017-10-07T11:03:12.543Z,12.8
2017-10-07T11:04:11.366Z,12.8
2017-10-07T11:05:10.702Z,12.8
2017-10-07T11:06:09.754Z,12.8
2017-10-07T11:07:08.958Z,12.9
2017-10-07T11:08:08.156Z,13
2017-10-07T11:09:07.347Z,13
2017-10-07T11:10:06.663Z,13
2017-10-07T11:11:05.863Z,13.1
2017-10-07T11:11:36.378Z,13.1
2017-10-07T11:12:07.021Z,13
2017-10-07T11:13:04.324Z,13
2017-10-07T11:14:03.269Z,13.1
2017-10-07T11:15:02.464Z,13.1
2017-10-07T11:16:01.664Z,13.2
2017-10-07T11:17:01.114Z,13.2
2017-10-07T11:18:00.300Z,13.1
2017-10-07T11:18:59.495Z,13.2
2017-10-07T11:19:58.317Z,13.2
2017-10-07T11:21:56.897Z,13.1
2017-10-07T11:22:56.242Z,13.1
2017-10-07T11:23:55.306Z,13
2017-10-07T11:24:54.752Z,13
2017-10-07T11:25:53.841Z,13
2017-10-07T11:26:53.037Z,13
2017-10-07T11:27:52.353Z,13
2017-10-07T11:28:51.452Z,13
2017-10-07T11:29:50.902Z,13
2017-10-07T11:30:49.587Z,13.1
2017-10-07T11:31:48.785Z,13.2
2017-10-07T11:32:48.110Z,13.2
2017-10-07T11:33:47.305Z,13.2
2017-10-07T11:34:46.371Z,13.2
2017-10-07T11:35:45.817Z,13.3
2017-10-07T11:36:44.886Z,13.3
2017-10-07T11:37:44.329Z,13.3
2017-10-07T11:38:43.024Z,13.3
2017-10-07T11:39:42.716Z,13.3
2017-10-07T11:40:41.545Z,13.3
2017-10-07T11:41:41.119Z,13.3
2017-10-07T11:42:40.192Z,13.2
2017-10-07T11:43:39.638Z,13.2
2017-10-07T11:44:38.337Z,13.2
2017-10-07T11:45:37.908Z,13.2
2017-10-07T11:46:37.223Z,13.1
2017-10-07T11:47:36.298Z,13
2017-10-07T11:48:35.623Z,13.1
2017-10-07T11:49:34.445Z,13
2017-10-07T11:50:33.502Z,13
2017-10-07T11:51:33.077Z,13
2017-10-07T11:52:32.143Z,13
2017-10-07T11:53:31.591Z,13
2017-10-07T11:54:30.418Z,13
2017-10-07T11:55:29.748Z,13.1
2017-10-07T11:56:29.070Z,13.1
2017-10-07T11:56:59.451Z,13.1
2017-10-07T11:57:29.961Z,13.1
2017-10-07T11:58:00.222Z,13.1
2017-10-07T11:58:30.735Z,13.1
2017-10-07T11:59:01.257Z,13.1
2017-10-07T12:00:25.890Z,13.2
2017-10-07T12:01:25.080Z,13.2
2017-10-07T12:02:24.406Z,13.2
2017-10-07T12:03:23.228Z,13.2
2017-10-07T12:04:22.681Z,13.2
2017-10-07T12:05:21.884Z,13.2
2017-10-07T12:06:20.826Z,13.2
2017-10-07T12:06:51.207Z,13.2
2017-10-07T12:07:21.726Z,13.2
2017-10-07T12:07:52.230Z,13.2
2017-10-07T12:08:22.745Z,13.1
2017-10-07T12:08:52.880Z,13.1
2017-10-07T12:09:23.265Z,13.2
2017-10-07T12:09:53.768Z,13.2
2017-10-07T12:11:17.123Z,13.2
2017-10-07T12:12:16.318Z,13.2
2017-10-07T12:13:15.507Z,13.1
2017-10-07T12:14:14.830Z,13.1
2017-10-07T12:15:14.020Z,13.1
2017-10-07T12:16:13.340Z,13.2
2017-10-07T12:17:12.663Z,13.1
2017-10-07T12:18:11.222Z,13.1
2017-10-07T12:19:10.943Z,13.1
2017-10-07T12:20:10.023Z,13.1
2017-10-07T12:21:09.347Z,13.1
2017-10-07T12:22:08.163Z,13.1
2017-10-07T12:23:07.610Z,13.2
2017-10-07T12:24:06.936Z,13.2
2017-10-07T12:25:06.126Z,13.2
2017-10-07T12:26:04.824Z,13.1
2017-10-07T12:27:04.268Z,13.1
2017-10-07T12:28:03.586Z,13.1
2017-10-07T12:29:02.908Z,13.1
2017-10-07T12:30:02.226Z,13.1
2017-10-07T12:31:01.048Z,13.1
2017-10-07T12:32:59.631Z,13.1
2017-10-07T12:33:58.734Z,13
2017-10-07T12:34:58.054Z,13
2017-10-07T12:35:57.123Z,13.1
2017-10-07T12:36:56.451Z,13.1
2017-10-07T12:37:55.768Z,13.1
2017-10-07T12:38:26.151Z,13.1
2017-10-07T12:38:56.779Z,13.2
2017-10-07T12:39:27.161Z,13.2
2017-10-07T12:39:57.915Z,13.2
2017-10-07T12:40:27.928Z,13.2
2017-10-07T12:41:52.407Z,13.2
2017-10-07T12:42:51.639Z,13.2
2017-10-07T12:43:50.988Z,13.2
2017-10-07T12:44:49.930Z,13.1
2017-10-07T12:45:49.375Z,13.1
2017-10-07T12:46:48.441Z,13.1
2017-10-07T12:47:47.769Z,13.1
2017-10-07T12:48:46.833Z,13.1
2017-10-07T12:49:17.212Z,13.1
2017-10-07T12:50:18.353Z,13
2017-10-07T12:50:48.608Z,13
2017-10-07T12:51:19.249Z,13
2017-10-07T12:52:43.606Z,13
2017-10-07T12:54:41.937Z,13
2017-10-07T12:55:41.380Z,13
2017-10-07T12:56:40.576Z,12.9
2017-10-07T12:57:39.651Z,13
2017-10-07T12:58:39.229Z,12.9
2017-10-07T12:59:38.168Z,12.9
2017-10-07T13:00:37.360Z,12.9
2017-10-07T13:02:35.812Z,12.9
2017-10-07T13:03:34.880Z,12.9
2017-10-07T13:04:33.948Z,12.9